Aérodrome :
LOGIN :

S'inscrire | Disclaimer

   EN    FR    IT 

 










Légende :    VFR   VFR Marginal   IFR   IFR Intensif   IFR Très Intensif
Visi : 
Plafond : 
>= 8 km
>= 3000ft
5 à 8 km
1000 à 3000 ft
1500m à 5 km
500 à 1000 ft
800 à 1500m
200 à 500 ft
< 800m
< 200 ft
Symboles :   Orages  Brouillard  Fortes neiges  Fortes précipitations  Vent > 20 kt
SIGMETs :   Divers  Orages  Givrage  Turbulence  Onde Orograph.  Cendres Volcan.






- Altitude de l'aérodrome : -11 ft
- Code IATA : AMS


EHAM - Amsterdam Schiphol

DERNIER METAR :
  • 221555Z 25021G31KT 9999 -RA FEW012 SCT024 BKN040 11/08 Q1015 TEMPO 7000

METARs EXPIRÉS :
  • 221525Z 25025KT 220V280 9000 -RA FEW015 SCT022 BKN045 11/08 Q1015 TEMPO 6000
  • 221455Z 25021G31KT 9000 -RA FEW013 SCT018 BKN040 11/09 Q1015 TEMPO 6000 BKN014
  • 221425Z 24030G42KT 9999 FEW012 SCT048 12/08 Q1015 BECMG 26023G35KT TEMPO 7000 -RA BKN014
  • 221355Z 24028KT 210V270 9999 FEW014 SCT048 12/08 Q1015 TEMPO 7000 -RADZ BKN014
  • 221325Z 24030G42KT 210V270 9999 FEW012 SCT047 12/08 Q1015 TEMPO 7000 -RADZ BKN014

TAF TAF EHAM
Valide du 22 à 12h jusqu'au 23 à 18h UTC


221121Z 2212/2318 23028G42KT 7000 BKN014
PROB40
TEMPO 2212/2215 4500 -DZRA BKN008
BECMG 2214/2217 25022G32KT 9999 SCT025
PROB30
TEMPO 2214/2224 7000 -SHRA FEW018TCU BKN022
BECMG 2300/2303 24015KT 7000 RA
BECMG 2303/2306 23010KT 4000 RADZ BKN012
BECMG 2306/2308 18008KT 2500 +RADZ BKN008
BECMG 2308/2311 25030G45KT 7000 -RA
BECMG 2311/2314 30020G30KT 9999 NSW BKN014
BECMG 2314/2317 29015G25KT SCT020



MET'MAP, la Météo Aéronautique d'un coup d'oeil ! - Copyright ORBIFLY Décembre 2007 - Disclaimer

ORBIFLY MET'MAP TEAM :

Programmation & Développement : Alexandra Zaïnal
Sur une idée originale de : Baudouin d'Aumeries
Assistance à la programmation : Marc-Olivier Méhu
Soutien technique & logistique : Manuel Goepfert

Contact : metmap@orbifly.com




SOURCES & CREDITS :

   NOAA